createdAt,value
2023-04-28T00:00:03.637Z,482.00
2023-04-28T00:01:03.614Z,481.00
2023-04-28T00:02:03.626Z,481.00
2023-04-28T00:03:03.761Z,483.00
2023-04-28T00:04:03.784Z,484.00
2023-04-28T00:05:03.815Z,485.00
2023-04-28T00:06:03.649Z,485.00
2023-04-28T00:07:03.606Z,485.00
2023-04-28T00:08:03.616Z,486.00
2023-04-28T00:09:03.670Z,486.00
2023-04-28T00:10:03.685Z,484.00
2023-04-28T00:11:03.637Z,482.00
2023-04-28T00:12:03.626Z,483.00
2023-04-28T00:13:03.600Z,484.00
2023-04-28T00:14:03.612Z,484.00
2023-04-28T00:15:03.678Z,484.00
2023-04-28T00:16:03.649Z,484.00
2023-04-28T00:17:03.751Z,486.00
2023-04-28T00:18:03.653Z,486.00
2023-04-28T00:19:03.644Z,487.00
2023-04-28T00:20:03.650Z,488.00
2023-04-28T00:21:03.658Z,488.00
2023-04-28T00:22:03.666Z,489.00
2023-04-28T00:23:03.672Z,489.00
2023-04-28T00:24:03.672Z,485.00
2023-04-28T00:25:03.683Z,485.00
2023-04-28T00:26:03.684Z,483.00
2023-04-28T00:27:03.689Z,485.00
2023-04-28T00:28:03.696Z,485.00
2023-04-28T00:29:03.710Z,484.00
2023-04-28T00:30:04.166Z,482.00
2023-04-28T00:31:03.722Z,480.00
2023-04-28T00:32:03.813Z,480.00
2023-04-28T00:33:03.757Z,481.00
2023-04-28T00:34:03.748Z,480.00
2023-04-28T00:35:04.163Z,483.00
2023-04-28T00:36:03.688Z,483.00
2023-04-28T00:37:03.699Z,483.00
2023-04-28T00:38:03.699Z,483.00
2023-04-28T00:39:03.714Z,485.00
2023-04-28T00:40:03.741Z,486.00
2023-04-28T00:41:03.715Z,486.00
2023-04-28T00:42:03.725Z,486.00
2023-04-28T00:43:03.744Z,488.00
2023-04-28T00:44:03.726Z,488.00
2023-04-28T00:45:04.232Z,487.00
2023-04-28T00:46:03.795Z,486.00
2023-04-28T00:47:03.722Z,487.00
2023-04-28T00:48:03.867Z,485.00
2023-04-28T00:49:03.700Z,486.00
2023-04-28T00:50:03.793Z,486.00
2023-04-28T00:51:04.220Z,485.00
2023-04-28T00:52:03.805Z,485.00
2023-04-28T00:53:03.774Z,484.00
2023-04-28T00:54:03.745Z,480.00
2023-04-28T00:55:03.781Z,480.00
2023-04-28T00:56:03.793Z,480.00
2023-04-28T00:57:03.800Z,480.00
2023-04-28T00:58:03.807Z,480.00
2023-04-28T00:59:03.757Z,479.00
2023-04-28T01:00:03.822Z,479.00
2023-04-28T01:01:03.882Z,481.00
2023-04-28T01:02:03.883Z,481.00
2023-04-28T01:03:03.975Z,482.00
2023-04-28T01:04:04.092Z,483.00
2023-04-28T01:05:03.913Z,483.00
2023-04-28T01:06:04.165Z,480.00
2023-04-28T01:07:03.942Z,479.00
2023-04-28T01:08:03.868Z,477.00
2023-04-28T01:09:03.920Z,478.00
2023-04-28T01:10:03.888Z,480.00
2023-04-28T01:11:03.900Z,481.00
2023-04-28T01:12:03.937Z,482.00
2023-04-28T01:13:03.910Z,483.00
2023-04-28T01:14:03.911Z,482.00
2023-04-28T01:15:03.925Z,479.00
2023-04-28T01:16:03.976Z,478.00
2023-04-28T01:17:03.950Z,480.00
2023-04-28T01:18:03.966Z,479.00
2023-04-28T01:19:03.950Z,479.00
2023-04-28T01:20:03.951Z,480.00
2023-04-28T01:21:03.964Z,477.00
2023-04-28T01:22:03.930Z,479.00
2023-04-28T01:23:03.920Z,481.00
2023-04-28T01:24:03.936Z,479.00
2023-04-28T01:25:03.929Z,479.00
2023-04-28T01:26:04.211Z,478.00
2023-04-28T01:27:03.913Z,481.00
2023-04-28T01:28:03.921Z,483.00
2023-04-28T01:29:04.025Z,484.00
2023-04-28T01:30:03.933Z,484.00
2023-04-28T01:31:03.971Z,485.00
2023-04-28T01:32:04.062Z,485.00
2023-04-28T01:33:04.068Z,483.00
2023-04-28T01:34:04.005Z,482.00
2023-04-28T01:35:04.003Z,480.00
2023-04-28T01:36:03.998Z,478.00
2023-04-28T01:37:04.059Z,475.00
2023-04-28T01:38:04.039Z,476.00
2023-04-28T01:39:04.073Z,480.00
2023-04-28T01:40:04.049Z,479.00
2023-04-28T01:41:04.060Z,480.00
2023-04-28T01:42:04.109Z,480.00
2023-04-28T01:43:04.045Z,480.00
2023-04-28T01:44:04.059Z,480.00
2023-04-28T01:45:04.111Z,482.00
2023-04-28T01:46:04.133Z,480.00
2023-04-28T01:47:04.101Z,479.00
2023-04-28T01:48:04.166Z,480.00
2023-04-28T01:49:04.148Z,482.00
2023-04-28T01:50:04.105Z,483.00
2023-04-28T01:51:04.174Z,485.00
2023-04-28T01:52:04.119Z,486.00
2023-04-28T01:53:04.135Z,489.00
2023-04-28T01:54:04.180Z,492.00
2023-04-28T01:55:04.136Z,491.00
2023-04-28T01:56:04.129Z,492.00
2023-04-28T01:57:04.143Z,491.00
2023-04-28T01:58:04.178Z,489.00
2023-04-28T01:59:04.177Z,488.00
2023-04-28T02:00:04.165Z,491.00
2023-04-28T02:01:04.769Z,490.00
2023-04-28T02:02:04.349Z,488.00
2023-04-28T02:03:04.356Z,485.00
2023-04-28T02:04:04.296Z,487.00
2023-04-28T02:05:04.304Z,487.00
2023-04-28T02:06:04.306Z,486.00
2023-04-28T02:07:04.314Z,486.00
2023-04-28T02:08:04.316Z,488.00
2023-04-28T02:09:04.298Z,488.00
2023-04-28T02:10:04.329Z,489.00
2023-04-28T02:11:04.332Z,489.00
2023-04-28T02:12:04.322Z,491.00
2023-04-28T02:13:04.328Z,491.00
2023-04-28T02:14:04.340Z,493.00
2023-04-28T02:15:04.363Z,490.00
2023-04-28T02:16:04.761Z,490.00
2023-04-28T02:17:04.358Z,490.00
2023-04-28T02:18:04.443Z,487.00
2023-04-28T02:19:04.400Z,488.00
2023-04-28T02:20:04.390Z,490.00
2023-04-28T02:21:04.401Z,490.00
2023-04-28T02:22:04.418Z,492.00
2023-04-28T02:23:04.457Z,493.00
2023-04-28T02:24:04.410Z,491.00
2023-04-28T02:25:04.473Z,490.00
2023-04-28T02:26:04.467Z,491.00
2023-04-28T02:27:04.473Z,491.00
2023-04-28T02:28:04.503Z,490.00
2023-04-28T02:29:04.584Z,491.00
2023-04-28T02:30:04.578Z,489.00
2023-04-28T02:31:04.613Z,490.00
2023-04-28T02:32:04.574Z,489.00
2023-04-28T02:33:04.625Z,489.00
2023-04-28T02:34:04.637Z,488.00
2023-04-28T02:35:04.644Z,486.00
2023-04-28T02:36:04.662Z,485.00
2023-04-28T02:37:04.718Z,488.00
2023-04-28T02:38:04.725Z,486.00
2023-04-28T02:39:04.718Z,487.00
2023-04-28T02:40:04.723Z,486.00
2023-04-28T02:41:04.775Z,484.00
2023-04-28T02:42:04.792Z,485.00
2023-04-28T02:43:04.807Z,482.00
2023-04-28T02:44:04.804Z,482.00
2023-04-28T02:45:04.816Z,483.00
2023-04-28T02:46:04.883Z,483.00
2023-04-28T02:47:04.967Z,485.00
2023-04-28T02:48:04.920Z,485.00
2023-04-28T02:49:04.955Z,485.00
2023-04-28T02:50:04.964Z,487.00
2023-04-28T02:51:05.016Z,487.00
2023-04-28T02:52:05.010Z,489.00
2023-04-28T02:53:04.978Z,488.00
2023-04-28T02:54:05.029Z,489.00
2023-04-28T02:55:05.035Z,488.00
2023-04-28T02:56:05.071Z,485.00
2023-04-28T02:57:05.098Z,485.00
2023-04-28T02:58:05.118Z,484.00
2023-04-28T02:59:05.144Z,487.00
2023-04-28T03:00:05.179Z,486.00
2023-04-28T03:01:05.236Z,490.00
2023-04-28T03:02:05.187Z,490.00
2023-04-28T03:03:05.429Z,488.00
2023-04-28T03:04:05.325Z,487.00
2023-04-28T03:05:05.385Z,487.00
2023-04-28T03:06:05.297Z,487.00
2023-04-28T03:07:05.315Z,487.00
2023-04-28T03:08:05.329Z,485.00
2023-04-28T03:09:05.384Z,485.00
2023-04-28T03:10:05.320Z,486.00
2023-04-28T03:11:05.715Z,486.00
2023-04-28T03:12:05.416Z,487.00
2023-04-28T03:13:05.438Z,486.00
2023-04-28T03:14:05.423Z,486.00
2023-04-28T03:15:05.496Z,485.00
2023-04-28T03:16:05.593Z,486.00
2023-04-28T03:17:05.507Z,485.00
2023-04-28T03:18:05.651Z,485.00
2023-04-28T03:19:05.599Z,485.00
2023-04-28T03:20:05.625Z,486.00
2023-04-28T03:21:05.594Z,485.00
2023-04-28T03:22:05.668Z,483.00
2023-04-28T03:23:05.700Z,483.00
2023-04-28T03:24:06.032Z,483.00
2023-04-28T03:25:05.721Z,483.00
2023-04-28T03:26:05.776Z,483.00
2023-04-28T03:27:05.773Z,485.00
2023-04-28T03:28:05.789Z,485.00
2023-04-28T03:29:05.843Z,485.00
2023-04-28T03:30:05.789Z,485.00
2023-04-28T03:31:06.782Z,482.00
2023-04-28T03:32:05.935Z,482.00
2023-04-28T03:33:06.008Z,485.00
2023-04-28T03:34:05.920Z,485.00
2023-04-28T03:35:05.944Z,484.00
2023-04-28T03:36:05.949Z,484.00
2023-04-28T03:37:05.942Z,483.00
2023-04-28T03:38:06.016Z,482.00
2023-04-28T03:39:06.010Z,482.00
2023-04-28T03:40:06.015Z,484.00
2023-04-28T03:41:06.080Z,484.00
2023-04-28T03:42:06.039Z,481.00
2023-04-28T03:43:06.054Z,481.00
2023-04-28T03:44:06.098Z,482.00
2023-04-28T03:45:06.113Z,484.00
2023-04-28T03:46:06.143Z,484.00
2023-04-28T03:47:06.176Z,484.00
2023-04-28T03:48:06.236Z,485.00
2023-04-28T03:49:06.232Z,487.00
2023-04-28T03:50:06.255Z,487.00
2023-04-28T03:51:06.356Z,486.00
2023-04-28T03:52:06.341Z,486.00
2023-04-28T03:53:06.368Z,485.00
2023-04-28T03:54:06.371Z,486.00
2023-04-28T03:55:06.416Z,484.00
2023-04-28T03:56:06.766Z,485.00
2023-04-28T03:57:06.448Z,485.00
2023-04-28T03:58:06.520Z,484.00
2023-04-28T03:59:06.476Z,485.00
2023-04-28T04:00:06.535Z,485.00
2023-04-28T04:01:06.785Z,486.00
2023-04-28T04:02:06.622Z,486.00
2023-04-28T04:03:06.719Z,486.00
2023-04-28T04:04:06.734Z,486.00
2023-04-28T04:05:06.930Z,487.00
2023-04-28T04:06:06.773Z,488.00
2023-04-28T04:07:06.676Z,489.00
2023-04-28T04:08:06.730Z,489.00
2023-04-28T04:09:06.714Z,491.00
2023-04-28T04:10:06.785Z,492.00
2023-04-28T04:11:07.265Z,492.00
2023-04-28T04:12:06.776Z,494.00
2023-04-28T04:13:06.771Z,496.00
2023-04-28T04:14:06.828Z,495.00
2023-04-28T04:15:06.854Z,494.00
2023-04-28T04:16:07.343Z,492.00
2023-04-28T04:17:06.880Z,491.00
2023-04-28T04:18:06.971Z,489.00
2023-04-28T04:19:06.959Z,489.00
2023-04-28T04:20:07.062Z,488.00
2023-04-28T04:21:07.255Z,486.00
2023-04-28T04:22:07.062Z,489.00
2023-04-28T04:23:07.134Z,488.00
2023-04-28T04:24:07.154Z,488.00
2023-04-28T04:25:07.103Z,488.00
2023-04-28T04:26:07.150Z,490.00
2023-04-28T04:27:07.197Z,491.00
2023-04-28T04:28:07.196Z,491.00
2023-04-28T04:29:07.237Z,491.00
2023-04-28T04:30:07.279Z,490.00
2023-04-28T04:31:07.337Z,491.00
2023-04-28T04:32:07.363Z,491.00
2023-04-28T04:33:07.367Z,492.00
2023-04-28T04:34:07.369Z,490.00
2023-04-28T04:35:07.417Z,491.00
2023-04-28T04:36:07.430Z,492.00
2023-04-28T04:37:07.472Z,494.00
2023-04-28T04:38:07.489Z,494.00
2023-04-28T04:39:07.504Z,492.00
2023-04-28T04:40:07.552Z,494.00
2023-04-28T04:41:07.616Z,496.00
2023-04-28T04:42:22.684Z,497.00
2023-04-28T04:43:08.604Z,497.00
2023-04-28T04:44:07.654Z,496.00
2023-04-28T04:45:07.583Z,493.00
2023-04-28T04:46:08.269Z,492.00
2023-04-28T04:47:07.560Z,491.00
2023-04-28T04:48:07.630Z,494.00
2023-04-28T04:49:07.591Z,494.00
2023-04-28T04:50:07.586Z,494.00
2023-04-28T04:51:07.552Z,493.00
2023-04-28T04:52:07.558Z,494.00
2023-04-28T04:53:10.598Z,497.00
2023-04-28T04:54:08.534Z,504.00
2023-04-28T04:55:07.562Z,514.00
2023-04-28T04:56:07.565Z,520.00
2023-04-28T04:57:07.570Z,523.00
2023-04-28T04:58:07.501Z,525.00
2023-04-28T04:59:07.496Z,528.00
2023-04-28T05:00:07.522Z,528.00
2023-04-28T05:01:07.488Z,531.00
2023-04-28T05:02:09.406Z,532.00
2023-04-28T05:03:07.671Z,534.00
2023-04-28T05:04:07.767Z,536.00
2023-04-28T05:05:20.642Z,540.00
2023-04-28T05:06:08.452Z,543.00
2023-04-28T05:07:07.450Z,544.00
2023-04-28T05:08:07.430Z,549.00
2023-04-28T05:09:07.438Z,550.00
2023-04-28T05:10:07.444Z,548.00
2023-04-28T05:11:07.434Z,549.00
2023-04-28T05:12:07.482Z,550.00
2023-04-28T05:13:07.407Z,551.00
2023-04-28T05:14:07.380Z,551.00
2023-04-28T05:15:07.422Z,552.00
2023-04-28T05:16:07.445Z,552.00
2023-04-28T05:17:07.394Z,555.00
2023-04-28T05:18:07.429Z,557.00
2023-04-28T05:19:07.418Z,559.00
2023-04-28T05:20:07.360Z,557.00
2023-04-28T05:21:07.354Z,561.00
2023-04-28T05:22:07.355Z,563.00
2023-04-28T05:23:07.337Z,562.00
2023-04-28T05:24:07.345Z,561.00
2023-04-28T05:25:07.351Z,557.00
2023-04-28T05:26:07.367Z,556.00
2023-04-28T05:27:07.409Z,553.00
2023-04-28T05:28:07.481Z,553.00
2023-04-28T05:29:07.421Z,553.00
2023-04-28T05:30:07.477Z,551.00
2023-04-28T05:31:07.445Z,552.00
2023-04-28T05:32:07.854Z,552.00
2023-04-28T05:33:07.586Z,548.00
2023-04-28T05:34:07.574Z,545.00
2023-04-28T05:35:07.614Z,543.00
2023-04-28T05:36:07.637Z,542.00
2023-04-28T05:37:08.805Z,539.00
2023-04-28T05:38:07.743Z,540.00
2023-04-28T05:39:07.698Z,540.00
2023-04-28T05:40:07.749Z,541.00
2023-04-28T05:41:07.803Z,547.00
2023-04-28T05:42:07.812Z,549.00
2023-04-28T05:43:07.899Z,552.00
2023-04-28T05:44:07.884Z,555.00
2023-04-28T05:45:08.001Z,558.00
2023-04-28T05:46:18.153Z,559.00
2023-04-28T05:47:08.928Z,557.00
2023-04-28T05:48:07.979Z,561.00
2023-04-28T05:49:07.881Z,570.00
2023-04-28T05:50:07.926Z,585.00
2023-04-28T05:51:07.943Z,609.00
2023-04-28T05:52:07.920Z,624.00
2023-04-28T05:53:07.889Z,631.00
2023-04-28T05:54:07.879Z,640.00
2023-04-28T05:55:07.849Z,659.00
2023-04-28T05:56:07.858Z,670.00
2023-04-28T05:57:08.362Z,696.00
2023-04-28T05:58:07.878Z,712.00
2023-04-28T05:59:07.846Z,718.00
2023-04-28T06:00:07.818Z,747.00
2023-04-28T06:01:07.840Z,759.00
2023-04-28T06:02:08.329Z,756.00
2023-04-28T06:03:07.897Z,756.00
2023-04-28T06:05:08.174Z,763.00
2023-04-28T06:06:10.145Z,771.00
2023-04-28T06:07:07.986Z,785.00
2023-04-28T06:08:07.988Z,793.00
2023-04-28T06:09:07.998Z,793.00
2023-04-28T06:10:08.069Z,790.00
2023-04-28T06:11:08.020Z,791.00
2023-04-28T06:12:08.085Z,800.00
2023-04-28T06:13:08.092Z,811.00
2023-04-28T06:14:08.135Z,825.00
2023-04-28T06:15:08.112Z,833.00
2023-04-28T06:16:08.195Z,839.00
2023-04-28T06:17:08.215Z,835.00
2023-04-28T06:18:08.259Z,828.00
2023-04-28T06:19:08.233Z,821.00
2023-04-28T06:20:08.236Z,819.00
2023-04-28T06:21:08.238Z,816.00
2023-04-28T06:22:08.274Z,812.00
2023-04-28T06:23:08.303Z,809.00
2023-04-28T06:24:08.261Z,808.00
2023-04-28T06:25:08.284Z,808.00
2023-04-28T06:26:08.292Z,805.00
2023-04-28T06:27:08.325Z,803.00
2023-04-28T06:28:08.301Z,804.00
2023-04-28T06:29:08.304Z,810.00
2023-04-28T06:30:08.315Z,812.00
2023-04-28T06:31:08.374Z,816.00
2023-04-28T06:32:08.773Z,815.00
2023-04-28T06:33:08.288Z,809.00
2023-04-28T06:34:08.332Z,805.00
2023-04-28T06:35:08.331Z,806.00
2023-04-28T06:36:08.316Z,804.00
2023-04-28T06:37:08.378Z,802.00
2023-04-28T06:38:08.325Z,799.00
2023-04-28T06:39:08.380Z,797.00
2023-04-28T06:40:08.371Z,795.00
2023-04-28T06:41:08.332Z,794.00
2023-04-28T06:42:08.297Z,793.00
2023-04-28T06:43:08.323Z,794.00
2023-04-28T06:44:08.330Z,796.00
2023-04-28T06:45:08.353Z,802.00
2023-04-28T06:46:08.583Z,804.00
2023-04-28T06:47:08.430Z,803.00
2023-04-28T06:48:08.369Z,801.00
2023-04-28T06:49:08.321Z,799.00
2023-04-28T06:50:08.358Z,797.00
2023-04-28T06:51:08.343Z,797.00
2023-04-28T06:52:08.356Z,791.00
2023-04-28T06:53:08.367Z,785.00
2023-04-28T06:54:08.361Z,778.00
2023-04-28T06:55:08.374Z,766.00
2023-04-28T06:56:11.022Z,759.00
2023-04-28T06:57:08.387Z,762.00
2023-04-28T06:58:08.339Z,777.00
2023-04-28T06:59:08.394Z,799.00
2023-04-28T07:00:08.357Z,820.00
2023-04-28T07:01:08.383Z,838.00
2023-04-28T07:02:08.392Z,848.00
2023-04-28T07:03:08.881Z,861.00
2023-04-28T07:04:08.485Z,872.00
2023-04-28T07:05:08.352Z,877.00
2023-04-28T07:06:08.274Z,879.00
2023-04-28T07:07:08.364Z,882.00
2023-04-28T07:08:08.291Z,883.00
2023-04-28T07:09:08.298Z,882.00
2023-04-28T07:10:08.267Z,885.00
2023-04-28T07:11:08.290Z,886.00
2023-04-28T07:12:08.294Z,889.00
2023-04-28T07:13:08.309Z,895.00
2023-04-28T07:14:08.308Z,899.00
2023-04-28T07:15:10.098Z,902.00
2023-04-28T07:16:08.304Z,905.00
2023-04-28T07:17:08.256Z,909.00
2023-04-28T07:18:08.303Z,912.00
2023-04-28T07:19:08.242Z,916.00
2023-04-28T07:20:08.233Z,929.00
2023-04-28T07:21:08.198Z,936.00
2023-04-28T07:22:08.870Z,941.00
2023-04-28T07:23:08.298Z,942.00
2023-04-28T07:24:08.346Z,940.00
2023-04-28T07:25:08.376Z,941.00
2023-04-28T07:26:08.489Z,945.00
2023-04-28T07:27:08.500Z,947.00
2023-04-28T07:28:08.610Z,951.00
2023-04-28T07:29:08.607Z,955.00
2023-04-28T07:30:19.294Z,955.00
2023-04-28T07:31:09.651Z,954.00
2023-04-28T07:32:09.145Z,956.00
2023-04-28T07:33:08.675Z,957.00
2023-04-28T07:34:08.601Z,955.00
2023-04-28T07:35:08.657Z,956.00
2023-04-28T07:36:08.658Z,959.00
2023-04-28T07:37:08.623Z,957.00
2023-04-28T07:38:08.609Z,955.00
2023-04-28T07:39:08.607Z,950.00
2023-04-28T07:40:08.592Z,947.00
2023-04-28T07:41:10.993Z,945.00
2023-04-28T07:42:08.838Z,946.00
2023-04-28T07:43:08.608Z,949.00
2023-04-28T07:44:08.707Z,949.00
2023-04-28T07:45:08.565Z,950.00
2023-04-28T07:46:08.613Z,950.00
2023-04-28T07:47:08.852Z,949.00
2023-04-28T07:48:08.613Z,947.00
2023-04-28T07:49:08.566Z,946.00
2023-04-28T07:50:08.507Z,949.00
2023-04-28T07:51:08.516Z,945.00
2023-04-28T07:52:08.481Z,937.00
2023-04-28T07:53:08.489Z,912.00
2023-04-28T07:54:08.488Z,857.00
2023-04-28T07:55:08.489Z,843.00
2023-04-28T07:56:08.445Z,845.00
2023-04-28T07:57:08.839Z,844.00
2023-04-28T07:58:09.316Z,838.00
2023-04-28T07:59:08.446Z,831.00
2023-04-28T08:00:08.430Z,820.00
2023-04-28T08:01:08.436Z,814.00
2023-04-28T08:02:08.480Z,804.00
2023-04-28T08:03:08.587Z,794.00
2023-04-28T08:04:08.607Z,783.00
2023-04-28T08:05:08.757Z,770.00
2023-04-28T08:06:08.513Z,760.00
2023-04-28T08:07:08.797Z,754.00
2023-04-28T08:08:08.368Z,751.00
2023-04-28T08:09:08.405Z,743.00
2023-04-28T08:10:08.350Z,738.00
2023-04-28T08:11:08.397Z,738.00
2023-04-28T08:12:08.387Z,733.00
2023-04-28T08:13:08.383Z,723.00
2023-04-28T08:14:08.358Z,709.00
2023-04-28T08:15:08.335Z,702.00
2023-04-28T08:16:08.360Z,698.00
2023-04-28T08:17:08.354Z,694.00
2023-04-28T08:18:08.394Z,683.00
2023-04-28T08:19:08.373Z,672.00
2023-04-28T08:20:08.289Z,659.00
2023-04-28T08:21:08.260Z,649.00
2023-04-28T08:22:08.330Z,643.00
2023-04-28T08:23:08.278Z,642.00
2023-04-28T08:24:08.265Z,643.00
2023-04-28T08:25:08.255Z,646.00
2023-04-28T08:26:08.260Z,645.00
2023-04-28T08:27:08.267Z,640.00
2023-04-28T08:28:08.251Z,639.00
2023-04-28T08:29:08.244Z,635.00
2023-04-28T08:30:08.227Z,630.00
2023-04-28T08:31:08.250Z,623.00
2023-04-28T08:32:08.235Z,616.00
2023-04-28T08:33:08.276Z,609.00
2023-04-28T08:34:08.323Z,605.00
2023-04-28T08:35:08.312Z,601.00
2023-04-28T08:36:08.349Z,599.00
2023-04-28T08:37:08.416Z,595.00
2023-04-28T08:38:08.485Z,590.00
2023-04-28T08:39:08.493Z,589.00
2023-04-28T08:40:08.487Z,587.00
2023-04-28T08:41:08.555Z,585.00
2023-04-28T08:42:08.616Z,583.00
2023-04-28T08:43:08.625Z,581.00
2023-04-28T08:44:08.670Z,579.00
2023-04-28T08:45:08.720Z,574.00
2023-04-28T08:46:08.798Z,571.00
2023-04-28T08:47:08.780Z,572.00
2023-04-28T08:48:08.824Z,571.00
2023-04-28T08:49:08.901Z,571.00
2023-04-28T08:50:08.981Z,571.00
2023-04-28T08:51:08.913Z,569.00
2023-04-28T08:52:09.377Z,569.00
2023-04-28T08:53:08.993Z,569.00
2023-04-28T08:54:19.028Z,572.00
2023-04-28T08:55:10.092Z,572.00
2023-04-28T08:56:09.023Z,570.00
2023-04-28T08:57:09.082Z,569.00
2023-04-28T08:58:09.038Z,568.00
2023-04-28T08:59:08.960Z,566.00
2023-04-28T09:00:08.976Z,565.00
2023-04-28T09:01:08.978Z,566.00
2023-04-28T09:02:09.441Z,567.00
2023-04-28T09:03:09.172Z,566.00
2023-04-28T09:04:09.704Z,565.00
2023-04-28T09:05:09.257Z,565.00
2023-04-28T09:06:08.951Z,564.00
2023-04-28T09:07:08.925Z,564.00
2023-04-28T09:08:09.390Z,561.00
2023-04-28T09:09:09.029Z,560.00
2023-04-28T09:10:08.998Z,560.00
2023-04-28T09:11:09.049Z,559.00
2023-04-28T09:12:09.152Z,554.00
2023-04-28T09:13:09.136Z,554.00
2023-04-28T09:14:09.201Z,553.00
2023-04-28T09:15:09.210Z,552.00
2023-04-28T09:16:09.300Z,551.00
2023-04-28T09:17:09.295Z,550.00
2023-04-28T09:18:09.402Z,549.00
2023-04-28T09:19:09.374Z,545.00
2023-04-28T09:20:09.449Z,541.00
2023-04-28T09:21:09.512Z,541.00
2023-04-28T09:22:24.779Z,539.00
2023-04-28T09:23:10.486Z,539.00
2023-04-28T09:24:09.480Z,541.00
2023-04-28T09:25:09.472Z,542.00
2023-04-28T09:26:10.454Z,543.00
2023-04-28T09:27:09.453Z,545.00
2023-04-28T09:28:09.883Z,545.00
2023-04-28T09:29:09.459Z,547.00
2023-04-28T09:30:09.459Z,545.00
2023-04-28T09:31:09.399Z,546.00
2023-04-28T09:32:09.455Z,545.00
2023-04-28T09:33:11.611Z,546.00
2023-04-28T09:34:09.406Z,545.00
2023-04-28T09:35:09.401Z,546.00
2023-04-28T09:36:09.400Z,547.00
2023-04-28T09:37:09.423Z,545.00
2023-04-28T09:38:09.892Z,546.00
2023-04-28T09:39:09.415Z,545.00
2023-04-28T09:40:09.427Z,543.00
2023-04-28T09:41:09.350Z,541.00
2023-04-28T09:42:09.358Z,541.00
2023-04-28T09:43:21.016Z,540.00
2023-04-28T09:44:10.300Z,544.00
2023-04-28T09:45:09.313Z,548.00
2023-04-28T09:46:09.346Z,550.00
2023-04-28T09:47:09.346Z,550.00
2023-04-28T09:48:09.355Z,547.00
2023-04-28T09:49:09.284Z,548.00
2023-04-28T09:50:09.302Z,553.00
2023-04-28T09:51:10.458Z,634.00
2023-04-28T09:52:09.297Z,660.00
2023-04-28T09:53:09.271Z,685.00
2023-04-28T09:54:09.293Z,766.00
2023-04-28T09:55:09.298Z,799.00
2023-04-28T09:56:09.268Z,837.00
2023-04-28T09:57:09.261Z,897.00
2023-04-28T09:58:09.415Z,919.00
2023-04-28T09:59:09.266Z,963.00
2023-04-28T10:00:09.439Z,979.00
2023-04-28T10:01:09.311Z,985.00
2023-04-28T10:02:35.787Z,990.00
2023-04-28T10:03:10.266Z,998.00
2023-04-28T10:04:09.351Z,1002.00
2023-04-28T10:05:09.659Z,1006.00
2023-04-28T10:06:09.207Z,1015.00
2023-04-28T10:07:09.169Z,1020.00
2023-04-28T10:08:09.378Z,1029.00
2023-04-28T10:09:09.136Z,1040.00
2023-04-28T10:10:09.913Z,1052.00
2023-04-28T10:11:09.144Z,1057.00
2023-04-28T10:12:09.211Z,1053.00
2023-04-28T10:13:09.246Z,1053.00
2023-04-28T10:14:09.308Z,1048.00
2023-04-28T10:15:09.321Z,1036.00
2023-04-28T10:16:09.438Z,967.00
2023-04-28T10:17:09.448Z,956.00
2023-04-28T10:18:09.584Z,945.00
2023-04-28T10:19:09.548Z,925.00
2023-04-28T10:20:09.623Z,901.00
2023-04-28T10:21:09.664Z,821.00
2023-04-28T10:22:09.726Z,823.00
2023-04-28T10:23:09.885Z,836.00
2023-04-28T10:24:09.786Z,834.00
2023-04-28T10:25:09.869Z,809.00
2023-04-28T10:26:09.902Z,802.00
2023-04-28T10:27:09.976Z,807.00
2023-04-28T10:28:10.913Z,817.00
2023-04-28T10:29:10.135Z,831.00
2023-04-28T10:30:22.810Z,859.00
2023-04-28T10:31:11.178Z,881.00
2023-04-28T10:32:10.123Z,902.00
2023-04-28T10:33:10.483Z,923.00
2023-04-28T10:34:10.126Z,943.00
2023-04-28T10:35:10.132Z,961.00
2023-04-28T10:36:10.148Z,980.00
2023-04-28T10:37:10.089Z,1001.00
2023-04-28T10:38:10.114Z,1018.00
2023-04-28T10:39:10.148Z,1028.00
2023-04-28T10:40:10.112Z,1042.00
2023-04-28T10:41:10.224Z,1063.00
2023-04-28T10:42:10.232Z,1082.00
2023-04-28T10:43:10.220Z,1104.00
2023-04-28T10:44:10.307Z,1132.00
2023-04-28T10:45:10.345Z,1140.00
2023-04-28T10:46:10.414Z,1132.00
2023-04-28T10:47:10.468Z,1073.00
2023-04-28T10:48:10.922Z,1039.00
2023-04-28T10:49:10.513Z,1001.00
2023-04-28T10:50:10.592Z,966.00
2023-04-28T10:51:10.601Z,933.00
2023-04-28T10:52:10.633Z,913.00
2023-04-28T10:53:10.677Z,891.00
2023-04-28T10:54:10.761Z,872.00
2023-04-28T10:55:21.336Z,856.00
2023-04-28T10:56:11.788Z,841.00
2023-04-28T10:57:10.773Z,827.00
2023-04-28T10:58:10.958Z,813.00
2023-04-28T10:59:10.825Z,799.00
2023-04-28T11:00:10.722Z,782.00
2023-04-28T11:01:10.802Z,766.00
2023-04-28T11:02:10.804Z,756.00
2023-04-28T11:03:10.885Z,747.00
2023-04-28T11:04:10.974Z,733.00
2023-04-28T11:05:10.882Z,714.00
2023-04-28T11:06:10.769Z,703.00
2023-04-28T11:07:10.811Z,698.00
2023-04-28T11:08:10.875Z,690.00
2023-04-28T11:09:10.926Z,682.00
2023-04-28T11:10:10.958Z,673.00
2023-04-28T11:11:10.970Z,663.00
2023-04-28T11:12:11.038Z,657.00
2023-04-28T11:13:11.128Z,651.00
2023-04-28T11:14:11.126Z,648.00
2023-04-28T11:15:11.160Z,644.00
2023-04-28T11:16:11.241Z,643.00
2023-04-28T11:17:11.392Z,638.00
2023-04-28T11:18:11.465Z,631.00
2023-04-28T11:19:11.372Z,622.00
2023-04-28T11:20:11.388Z,614.00
2023-04-28T11:21:11.462Z,609.00
2023-04-28T11:22:11.538Z,602.00
2023-04-28T11:23:11.627Z,598.00
2023-04-28T11:24:11.571Z,595.00
2023-04-28T11:25:11.499Z,590.00
2023-04-28T11:26:11.502Z,585.00
2023-04-28T11:27:11.547Z,582.00
2023-04-28T11:28:11.481Z,577.00
2023-04-28T11:29:11.542Z,575.00
2023-04-28T11:30:11.529Z,571.00
2023-04-28T11:31:11.530Z,568.00
2023-04-28T11:32:11.660Z,567.00
2023-04-28T11:33:11.550Z,562.00
2023-04-28T11:34:11.944Z,559.00
2023-04-28T11:35:11.537Z,555.00
2023-04-28T11:36:11.509Z,552.00
2023-04-28T11:37:11.517Z,551.00
2023-04-28T11:38:11.511Z,550.00
2023-04-28T11:39:11.541Z,551.00
2023-04-28T11:40:11.533Z,547.00
2023-04-28T11:41:12.444Z,546.00
2023-04-28T11:42:11.534Z,543.00
2023-04-28T11:43:11.506Z,540.00
2023-04-28T11:44:11.497Z,539.00
2023-04-28T11:45:11.566Z,535.00
2023-04-28T11:46:11.569Z,534.00
2023-04-28T11:47:11.526Z,532.00
2023-04-28T11:48:11.537Z,533.00
2023-04-28T11:49:11.536Z,530.00
2023-04-28T11:50:11.507Z,528.00
2023-04-28T11:51:11.513Z,525.00
2023-04-28T11:52:11.527Z,522.00
2023-04-28T11:53:11.513Z,518.00
2023-04-28T11:54:11.986Z,518.00
2023-04-28T11:55:11.570Z,515.00
2023-04-28T11:56:11.556Z,513.00
2023-04-28T11:57:11.584Z,516.00
2023-04-28T11:58:11.562Z,518.00
2023-04-28T11:59:11.582Z,517.00
2023-04-28T12:00:11.661Z,520.00
2023-04-28T12:01:11.568Z,522.00
2023-04-28T12:02:11.653Z,524.00
2023-04-28T12:03:11.773Z,526.00
2023-04-28T12:04:11.827Z,529.00
2023-04-28T12:05:11.682Z,532.00
2023-04-28T12:06:11.609Z,536.00
2023-04-28T12:07:11.589Z,539.00
2023-04-28T12:08:11.583Z,544.00
2023-04-28T12:09:11.638Z,545.00
2023-04-28T12:10:11.638Z,547.00
2023-04-28T12:11:11.590Z,548.00
2023-04-28T12:12:11.617Z,547.00
2023-04-28T12:13:11.584Z,545.00
2023-04-28T12:14:11.976Z,544.00
2023-04-28T12:15:11.542Z,543.00
2023-04-28T12:16:11.649Z,545.00
2023-04-28T12:17:11.600Z,542.00
2023-04-28T12:18:11.608Z,539.00
2023-04-28T12:19:11.611Z,540.00
2023-04-28T12:20:11.565Z,539.00
2023-04-28T12:21:11.570Z,541.00
2023-04-28T12:22:11.571Z,541.00
2023-04-28T12:23:11.539Z,541.00
2023-04-28T12:24:11.950Z,541.00
2023-04-28T12:25:11.561Z,543.00
2023-04-28T12:26:11.576Z,542.00
2023-04-28T12:27:11.509Z,542.00
2023-04-28T12:28:11.584Z,544.00